Portada
METAR-TAF:

METAR-TAF

Aeropuertos :

Base Aérea de Getafe

Madrid-Getafe, España

latitud: 40-18N, longitud: 003-43W, altitud: 620 m

Observación

El informe se hizo hace 3 horas y 56 minutos, a las 18:00 UTC
Viento 5 kt del oeste-suroeste
Temperatura 16°C
Humedad 48%
Presión 1019 hPa
Visibilidad 10 km o más
sin nubes por debajo de 1500 m y sin presencia de cumulonimbus.

METAR: LEGT 161800Z 25005KT CAVOK 16/05 Q1019

Hora: 23:56 (21:56 UTC)

Pronóstico

El informe se hizo hace 4 horas y 56 minutos, a las 17:00 UTC
Pronóstico válido del 16 a las 18 UTC al 17 a las 03 UTC
Viento 5 kt con dirección variable
Visibilidad 10 km o más
sin nubes por debajo de 1500 m y sin presencia de cumulonimbus.
Probabilidad 30% :
Temporalmente
del 16 a las 18 UTC al 16 a las 19 UTC
Viento 10 kt del suroeste

TAF: LEGT 161700Z 1618/1703 VRB05KT CAVOK PROB30 TEMPO 1618/1619 22010KT

Observaciones y pronósticos meteorológicos de más de 4000 aeropuertos (mensajes METAR y TAF).

Los puntos amarillos y rojos representan las estaciones disponibles.

Ponga el ratón en el punto deseado para ver el nombre de la estación.

Haga clic para ver las observaciones y los pronósticos meteorológicos.

Para cambiar el mapa : haga clic en los botones verdes con una cruz de color negro para hacer un zoom, en el botón verde con un guión para alejar o en las flechas verdes para mapas adyacentes.


METAR-TAF: